createdAt,value
2022-08-09T00:00:24.948Z,85.70
2022-08-09T00:02:56.488Z,86.20
2022-08-09T00:06:16.324Z,86.10
2022-08-09T00:08:32.595Z,85.80
2022-08-09T00:11:05.540Z,85.70
2022-08-09T00:13:38.454Z,85.70
2022-08-09T00:16:12.857Z,86.40
2022-08-09T00:18:43.565Z,86.50
2022-08-09T00:21:17.568Z,86.50
2022-08-09T00:23:56.663Z,86.50
2022-08-09T00:26:33.261Z,86.70
2022-08-09T00:29:12.349Z,86.80
2022-08-09T00:31:58.802Z,86.80
2022-08-09T00:34:33.452Z,86.90
2022-08-09T00:37:06.721Z,87.90
2022-08-09T00:40:12.753Z,87.20
2022-08-09T00:44:15.501Z,87.10
2022-08-09T00:45:20.877Z,87.20
2022-08-09T00:47:51.450Z,87.60
2022-08-09T00:50:22.307Z,87.80
2022-08-09T00:52:56.649Z,87.70
2022-08-09T00:56:03.244Z,88.30
2022-08-09T00:58:22.174Z,87.90
2022-08-09T01:00:59.010Z,87.80
2022-08-09T01:03:46.602Z,88.30
2022-08-09T01:06:53.441Z,88.20
2022-08-09T01:09:36.521Z,88.30
2022-08-09T01:12:16.253Z,88.50
2022-08-09T01:14:58.046Z,88.50
2022-08-09T01:17:48.503Z,89.70
2022-08-09T01:20:31.706Z,88.80
2022-08-09T01:24:01.958Z,88.80
2022-08-09T01:26:37.648Z,88.70
2022-08-09T01:29:09.641Z,89.10
2022-08-09T01:32:32.468Z,90.40
2022-08-09T01:34:35.703Z,89.90
2022-08-09T01:37:12.129Z,89.40
2022-08-09T01:39:45.816Z,89.60
2022-08-09T01:42:20.143Z,89.60
2022-08-09T01:44:55.029Z,89.80
2022-08-09T01:47:26.687Z,90.10
2022-08-09T01:50:06.423Z,90.00
2022-08-09T01:52:43.414Z,90.20
2022-08-09T01:55:15.361Z,90.10
2022-08-09T01:57:52.998Z,90.80
2022-08-09T02:00:34.952Z,90.20
2022-08-09T02:03:10.567Z,90.20
2022-08-09T02:06:03.093Z,90.20
2022-08-09T02:08:57.087Z,90.40
2022-08-09T02:11:42.589Z,90.80
2022-08-09T02:14:25.563Z,90.50
2022-08-09T02:17:14.724Z,90.50
2022-08-09T02:19:49.452Z,90.70
2022-08-09T02:22:38.055Z,91.00
2022-08-09T02:25:17.143Z,90.90
2022-08-09T02:28:03.825Z,90.90
2022-08-09T02:30:46.396Z,91.10
2022-08-09T02:33:23.036Z,91.60
2022-08-09T02:36:02.632Z,91.00
2022-08-09T02:38:39.432Z,91.10
2022-08-09T02:41:14.126Z,91.20
2022-08-09T02:43:54.662Z,91.20
2022-08-09T02:46:31.409Z,91.20
2022-08-09T02:49:10.021Z,91.60
2022-08-09T02:51:42.656Z,91.30
2022-08-09T02:54:17.200Z,91.60
2022-08-09T02:56:51.511Z,91.40
2022-08-09T02:59:36.697Z,91.60
2022-08-09T03:02:16.836Z,91.50
2022-08-09T03:04:50.747Z,91.60
2022-08-09T03:07:23.041Z,92.10
2022-08-09T03:09:56.723Z,91.60
2022-08-09T03:12:32.200Z,91.80
2022-08-09T03:15:04.108Z,91.70
2022-08-09T03:17:39.253Z,91.80
2022-08-09T03:20:13.492Z,91.80
2022-08-09T03:22:56.953Z,92.00
2022-08-09T03:25:57.731Z,92.10
2022-08-09T03:28:21.605Z,92.10
2022-08-09T03:30:52.992Z,92.50
2022-08-09T03:33:27.033Z,92.10
2022-08-09T03:36:17.840Z,92.10
2022-08-09T03:38:51.344Z,92.20
2022-08-09T03:41:22.010Z,92.20
2022-08-09T03:44:08.422Z,92.30
2022-08-09T03:46:39.994Z,92.30
2022-08-09T03:49:18.986Z,92.50
2022-08-09T03:51:58.825Z,92.40
2022-08-09T03:54:38.537Z,92.50
2022-08-09T03:57:20.562Z,92.90
2022-08-09T03:59:55.797Z,92.70
2022-08-09T04:02:29.682Z,92.70
2022-08-09T04:05:06.659Z,92.70
2022-08-09T04:07:52.537Z,92.90
2022-08-09T04:10:29.444Z,92.80
2022-08-09T04:13:11.335Z,92.90
2022-08-09T04:16:19.219Z,93.30
2022-08-09T04:18:35.884Z,93.00
2022-08-09T04:21:09.198Z,93.10
2022-08-09T04:23:39.834Z,93.20
2022-08-09T04:26:10.491Z,93.20
2022-08-09T04:28:42.362Z,93.40
2022-08-09T04:31:17.410Z,93.50
2022-08-09T04:33:56.535Z,93.50
2022-08-09T04:36:32.559Z,93.60
2022-08-09T04:39:09.216Z,93.70
2022-08-09T04:41:43.692Z,93.70
2022-08-09T04:44:18.236Z,93.90
2022-08-09T04:46:58.286Z,93.80
2022-08-09T04:53:58.641Z,94.10
2022-08-09T04:56:32.530Z,94.30
2022-08-09T04:59:12.922Z,94.30
2022-08-09T05:01:45.628Z,94.50
2022-08-09T05:04:16.018Z,94.50
2022-08-09T05:06:46.449Z,94.60
2022-08-09T05:09:23.549Z,94.50
2022-08-09T05:11:55.271Z,94.60
2022-08-09T05:14:27.739Z,94.60
2022-08-09T05:17:00.023Z,94.70
2022-08-09T05:19:31.929Z,95.10
2022-08-09T05:23:51.156Z,94.90
2022-08-09T05:25:09.916Z,94.80
2022-08-09T05:27:46.461Z,95.00
2022-08-09T05:30:19.531Z,95.10
2022-08-09T05:32:53.396Z,96.40
2022-08-09T05:35:24.120Z,97.90
2022-08-09T05:37:56.020Z,98.80
2022-08-09T05:40:28.957Z,99.90
2022-08-09T05:42:59.483Z,99.90
2022-08-09T05:45:43.469Z,99.90
2022-08-09T05:48:20.412Z,99.90
2022-08-09T05:51:29.799Z,99.90
2022-08-09T05:53:56.846Z,99.90
2022-08-09T05:56:31.210Z,99.90
2022-08-09T05:59:01.999Z,99.90
2022-08-09T06:01:33.655Z,99.90
2022-08-09T06:04:13.686Z,99.90
2022-08-09T06:06:50.151Z,99.90
2022-08-09T06:09:54.052Z,99.90
2022-08-09T06:12:16.332Z,99.90
2022-08-09T06:14:47.464Z,99.90
2022-08-09T06:17:17.837Z,99.90
2022-08-09T06:19:48.336Z,99.90
2022-08-09T06:22:28.704Z,99.90
2022-08-09T06:24:59.701Z,99.90
2022-08-09T06:27:41.288Z,99.90
2022-08-09T06:30:16.126Z,99.90
2022-08-09T06:33:00.136Z,99.90
2022-08-09T06:35:57.270Z,99.90
2022-08-09T06:38:32.219Z,99.90
2022-08-09T06:41:19.161Z,99.90
2022-08-09T06:43:53.506Z,99.90
2022-08-09T06:46:40.248Z,99.90
2022-08-09T06:49:11.734Z,99.90
2022-08-09T06:51:42.294Z,99.90
2022-08-09T06:54:14.870Z,99.90
2022-08-09T06:56:46.394Z,99.90
2022-08-09T07:00:55.744Z,99.90
2022-08-09T07:02:10.238Z,99.90
2022-08-09T07:04:40.659Z,99.90
2022-08-09T07:07:12.063Z,99.90
2022-08-09T07:10:14.219Z,99.90
2022-08-09T07:12:57.367Z,99.80
2022-08-09T07:16:36.573Z,99.90
2022-08-09T07:18:21.840Z,99.90
2022-08-09T07:20:52.657Z,98.80
2022-08-09T07:23:23.061Z,98.40
2022-08-09T07:26:02.243Z,97.30
2022-08-09T07:28:34.645Z,97.20
2022-08-09T07:31:09.115Z,97.80
2022-08-09T07:33:52.662Z,97.40
2022-08-09T07:36:26.129Z,98.10
2022-08-09T07:39:01.001Z,98.00
2022-08-09T07:41:32.828Z,97.10
2022-08-09T07:44:09.388Z,97.20
2022-08-09T07:46:44.918Z,96.10
2022-08-09T07:49:18.211Z,95.50
2022-08-09T07:52:04.895Z,95.60
2022-08-09T07:54:39.027Z,93.70
2022-08-09T07:57:11.617Z,93.10
2022-08-09T07:59:51.061Z,92.80
2022-08-09T08:02:35.956Z,92.10
2022-08-09T08:05:18.579Z,92.50
2022-08-09T08:08:43.397Z,92.20
2022-08-09T08:10:39.907Z,92.00
2022-08-09T08:13:38.188Z,91.20
2022-08-09T08:16:31.697Z,90.20
2022-08-09T08:19:05.668Z,91.10
2022-08-09T08:21:39.682Z,87.00
2022-08-09T08:24:11.947Z,88.60
2022-08-09T08:26:55.988Z,87.90
2022-08-09T08:29:28.620Z,87.40
2022-08-09T08:32:12.559Z,87.20
2022-08-09T08:34:52.135Z,86.70
2022-08-09T08:37:25.760Z,84.60
2022-08-09T08:40:14.627Z,84.40
2022-08-09T08:42:47.128Z,83.90
2022-08-09T08:45:37.040Z,83.30
2022-08-09T08:48:10.175Z,84.90
2022-08-09T08:50:45.389Z,83.50
2022-08-09T08:53:22.005Z,82.10
2022-08-09T08:55:52.895Z,82.40
2022-08-09T08:58:27.291Z,82.50
2022-08-09T09:00:59.159Z,81.70
2022-08-09T09:03:37.674Z,81.30
2022-08-09T09:06:13.018Z,81.10
2022-08-09T09:08:46.340Z,78.30
2022-08-09T09:11:24.345Z,80.70
2022-08-09T09:13:59.046Z,78.80
2022-08-09T09:16:34.349Z,78.70
2022-08-09T09:19:40.686Z,78.00
2022-08-09T09:22:11.375Z,81.30
2022-08-09T09:24:45.450Z,76.80
2022-08-09T09:28:03.058Z,76.80
2022-08-09T09:30:34.522Z,77.90
2022-08-09T09:33:16.346Z,77.50
2022-08-09T09:36:02.458Z,76.00
2022-08-09T09:38:50.332Z,75.60
2022-08-09T09:41:48.821Z,76.50
2022-08-09T09:44:31.563Z,76.10
2022-08-09T09:47:10.028Z,77.80
2022-08-09T09:49:56.276Z,74.20
2022-08-09T09:52:36.839Z,74.60
2022-08-09T09:55:23.927Z,76.20
2022-08-09T09:58:15.832Z,74.10
2022-08-09T10:00:52.964Z,75.10
2022-08-09T10:03:57.959Z,75.10
2022-08-09T10:06:32.663Z,72.70
2022-08-09T10:09:21.800Z,72.00
2022-08-09T10:12:26.783Z,72.50
2022-08-09T10:14:55.032Z,72.60
2022-08-09T10:17:50.470Z,73.20
2022-08-09T10:20:32.613Z,71.70
2022-08-09T10:23:20.225Z,71.30
2022-08-09T10:26:04.355Z,72.20
2022-08-09T10:28:48.725Z,70.80
2022-08-09T10:34:33.423Z,70.30
2022-08-09T10:37:07.049Z,71.80
2022-08-09T10:39:49.279Z,69.30
2022-08-09T10:42:20.280Z,70.60
2022-08-09T10:45:10.588Z,70.10
2022-08-09T10:48:19.619Z,70.40
2022-08-09T10:51:04.981Z,71.30
2022-08-09T10:53:55.071Z,71.20
2022-08-09T10:56:29.396Z,73.00
2022-08-09T10:59:03.465Z,71.80
2022-08-09T11:03:11.854Z,72.10
2022-08-09T11:04:35.570Z,69.40
2022-08-09T11:07:57.241Z,68.80
2022-08-09T11:11:08.950Z,72.50
2022-08-09T11:13:53.677Z,68.60
2022-08-09T11:16:43.841Z,68.30
2022-08-09T11:19:18.726Z,68.30
2022-08-09T11:22:10.852Z,68.10
2022-08-09T11:25:10.763Z,68.30
2022-08-09T11:28:05.636Z,67.70
2022-08-09T11:30:38.854Z,68.90
2022-08-09T11:33:38.645Z,69.50
2022-08-09T11:36:11.467Z,70.10
2022-08-09T11:39:06.725Z,69.80
2022-08-09T11:41:42.167Z,69.40
2022-08-09T11:44:15.408Z,70.90
2022-08-09T11:46:58.068Z,70.50
2022-08-09T11:50:55.326Z,70.10
2022-08-09T11:53:57.829Z,68.70
2022-08-09T11:56:42.695Z,68.30
2022-08-09T11:59:33.584Z,68.00
2022-08-09T12:02:18.351Z,70.10
2022-08-09T12:04:58.768Z,70.00
2022-08-09T12:07:41.717Z,67.40
2022-08-09T12:10:31.743Z,67.60
2022-08-09T12:14:08.116Z,68.20
2022-08-09T12:15:56.582Z,69.80
2022-08-09T12:18:31.126Z,68.90
2022-08-09T12:21:26.610Z,69.00
2022-08-09T12:24:09.416Z,69.10
2022-08-09T12:29:15.302Z,68.60
2022-08-09T12:29:52.509Z,68.10
2022-08-09T12:32:29.947Z,68.20
2022-08-09T12:35:04.726Z,68.40
2022-08-09T12:37:49.802Z,66.70
2022-08-09T12:40:27.375Z,67.40
2022-08-09T12:42:59.653Z,67.90
2022-08-09T12:45:33.269Z,66.40
2022-08-09T12:48:20.170Z,66.10
2022-08-09T12:50:59.943Z,66.20
2022-08-09T12:53:38.851Z,66.60
2022-08-09T12:56:43.017Z,66.30
2022-08-09T12:59:14.298Z,65.00
2022-08-09T13:01:49.908Z,65.70
2022-08-09T13:04:36.867Z,67.30
2022-08-09T13:07:19.779Z,66.80
2022-08-09T13:10:06.489Z,66.20
2022-08-09T13:13:10.925Z,65.70
2022-08-09T13:15:55.860Z,66.00
2022-08-09T13:18:28.591Z,66.20
2022-08-09T13:22:33.100Z,65.40
2022-08-09T13:24:17.427Z,65.40
2022-08-09T13:26:50.118Z,66.20
2022-08-09T13:29:42.131Z,66.20
2022-08-09T13:32:26.409Z,65.50
2022-08-09T13:34:58.240Z,66.20
2022-08-09T13:37:52.241Z,66.10
2022-08-09T13:41:46.924Z,66.20
2022-08-09T13:43:16.027Z,66.20
2022-08-09T13:46:44.428Z,66.50
2022-08-09T13:48:42.370Z,66.00
2022-08-09T13:51:12.790Z,66.20
2022-08-09T13:53:44.686Z,66.50
2022-08-09T13:56:15.333Z,66.60
2022-08-09T13:58:48.513Z,66.30
2022-08-09T14:01:56.407Z,67.00
2022-08-09T14:04:12.356Z,67.00
2022-08-09T14:06:46.316Z,66.20
2022-08-09T14:09:16.808Z,66.50
2022-08-09T14:11:48.063Z,66.10
2022-08-09T14:14:25.689Z,65.40
2022-08-09T14:17:00.845Z,65.50
2022-08-09T14:19:33.456Z,65.90
2022-08-09T14:22:04.373Z,66.10
2022-08-09T14:24:34.963Z,66.20
2022-08-09T14:27:19.957Z,66.20
2022-08-09T14:30:34.088Z,65.90
2022-08-09T14:32:44.317Z,65.80
2022-08-09T14:35:15.514Z,65.30
2022-08-09T14:38:02.505Z,65.00
2022-08-09T14:41:00.437Z,64.80
2022-08-09T14:43:24.897Z,64.80
2022-08-09T14:46:54.998Z,66.60
2022-08-09T14:49:10.577Z,64.80
2022-08-09T14:51:42.011Z,65.80
2022-08-09T14:54:13.226Z,64.40
2022-08-09T14:56:57.359Z,66.00
2022-08-09T14:59:29.163Z,65.30
2022-08-09T15:02:00.980Z,65.20
2022-08-09T15:04:35.585Z,64.70
2022-08-09T15:07:06.208Z,65.70
2022-08-09T15:10:07.600Z,64.80
2022-08-09T15:12:31.932Z,65.50
2022-08-09T15:15:02.142Z,65.40
2022-08-09T15:17:32.659Z,64.90
2022-08-09T15:21:55.998Z,64.70
2022-08-09T15:23:55.823Z,64.50
2022-08-09T15:25:58.607Z,64.90
2022-08-09T15:28:32.990Z,65.00
2022-08-09T15:31:10.059Z,64.10
2022-08-09T15:34:17.633Z,65.20
2022-08-09T15:36:38.690Z,64.30
2022-08-09T15:39:20.637Z,64.90
2022-08-09T15:41:51.153Z,64.30
2022-08-09T15:44:22.942Z,63.80
2022-08-09T15:46:53.601Z,63.80
2022-08-09T15:49:24.202Z,64.30
2022-08-09T15:52:02.983Z,64.00
2022-08-09T15:54:49.369Z,63.40
2022-08-09T15:57:35.762Z,64.50
2022-08-09T16:00:21.885Z,64.70
2022-08-09T16:02:58.374Z,64.70
2022-08-09T16:05:47.723Z,65.20
2022-08-09T16:08:29.550Z,65.00
2022-08-09T16:11:01.593Z,65.00
2022-08-09T16:14:02.681Z,65.60
2022-08-09T16:16:26.133Z,66.20
2022-08-09T16:18:58.658Z,65.50
2022-08-09T16:21:31.804Z,65.50
2022-08-09T16:24:29.648Z,65.40
2022-08-09T16:27:01.350Z,65.00
2022-08-09T16:29:37.307Z,65.30
2022-08-09T16:32:18.961Z,64.60
2022-08-09T16:34:59.901Z,64.40
2022-08-09T16:37:56.123Z,65.00
2022-08-09T16:40:29.849Z,66.00
2022-08-09T16:43:10.770Z,65.90
2022-08-09T16:45:43.859Z,66.80
2022-08-09T16:48:50.836Z,67.40
2022-08-09T16:51:07.891Z,66.80
2022-08-09T16:53:56.293Z,66.80
2022-08-09T16:56:32.790Z,66.50
2022-08-09T16:59:06.916Z,66.90
2022-08-09T17:01:43.828Z,66.50
2022-08-09T17:04:25.749Z,66.70
2022-08-09T17:08:40.908Z,67.30
2022-08-09T17:09:48.982Z,67.50
2022-08-09T17:12:23.283Z,67.90
2022-08-09T17:14:58.230Z,67.90
2022-08-09T17:17:30.712Z,67.40
2022-08-09T17:20:33.048Z,67.40
2022-08-09T17:23:10.466Z,67.70
2022-08-09T17:25:45.200Z,67.70
2022-08-09T17:28:28.018Z,67.40
2022-08-09T17:30:58.350Z,67.60
2022-08-09T17:33:28.633Z,67.90
2022-08-09T17:36:09.072Z,67.60
2022-08-09T17:38:41.419Z,67.70
2022-08-09T17:41:38.943Z,68.00
2022-08-09T17:44:42.069Z,68.80
2022-08-09T17:47:04.126Z,69.20
2022-08-09T17:49:34.751Z,69.40
2022-08-09T17:52:05.938Z,69.60
2022-08-09T17:54:36.225Z,69.90
2022-08-09T17:57:08.160Z,70.10
2022-08-09T18:00:00.816Z,70.30
2022-08-09T18:02:36.552Z,70.60
2022-08-09T18:05:08.509Z,70.80
2022-08-09T18:07:48.553Z,71.10
2022-08-09T18:10:19.559Z,71.40
2022-08-09T18:13:38.728Z,71.40
2022-08-09T18:16:05.037Z,71.90
2022-08-09T18:18:36.355Z,71.80
2022-08-09T18:21:23.166Z,72.20
2022-08-09T18:24:12.275Z,72.20
2022-08-09T18:26:46.763Z,72.50
2022-08-09T18:30:39.137Z,72.60
2022-08-09T18:32:13.080Z,72.90
2022-08-09T18:34:43.753Z,73.00
2022-08-09T18:37:47.188Z,73.20
2022-08-09T18:40:04.872Z,73.30
2022-08-09T18:42:36.740Z,73.50
2022-08-09T18:45:10.733Z,74.00
2022-08-09T18:48:02.754Z,74.00
2022-08-09T18:50:34.861Z,74.20
2022-08-09T18:53:05.535Z,74.30
2022-08-09T18:55:56.466Z,74.30
2022-08-09T18:58:34.884Z,75.20
2022-08-09T19:01:09.703Z,75.00
2022-08-09T19:04:01.050Z,75.20
2022-08-09T19:06:38.363Z,75.30
2022-08-09T19:09:13.704Z,75.50
2022-08-09T19:12:01.139Z,75.70
2022-08-09T19:14:32.830Z,75.90
2022-08-09T19:17:07.289Z,76.20
2022-08-09T19:19:42.126Z,76.30
2022-08-09T19:22:12.802Z,77.20
2022-08-09T19:25:09.710Z,76.70
2022-08-09T19:27:39.641Z,77.20
2022-08-09T19:30:21.319Z,77.00
2022-08-09T19:32:56.245Z,77.60
2022-08-09T19:35:57.074Z,77.70
2022-08-09T19:38:20.885Z,77.70
2022-08-09T19:40:51.602Z,78.00
2022-08-09T19:44:01.684Z,78.20
2022-08-09T19:46:14.705Z,78.60
2022-08-09T19:49:00.912Z,78.80
2022-08-09T19:51:37.727Z,79.40
2022-08-09T19:54:08.562Z,79.50
2022-08-09T19:56:42.964Z,79.50
2022-08-09T19:59:39.631Z,79.60
2022-08-09T20:02:18.185Z,79.90
2022-08-09T20:04:58.425Z,80.20
2022-08-09T20:07:56.898Z,80.30
2022-08-09T20:10:34.793Z,80.70
2022-08-09T20:13:10.552Z,80.80
2022-08-09T20:16:37.425Z,80.90
2022-08-09T20:18:31.401Z,81.20
2022-08-09T20:21:02.075Z,81.50
2022-08-09T20:23:39.369Z,81.80
2022-08-09T20:26:13.046Z,82.10
2022-08-09T20:28:48.147Z,82.40
2022-08-09T20:31:22.460Z,82.80
2022-08-09T20:33:58.556Z,82.50
2022-08-09T20:36:33.070Z,83.20
2022-08-09T20:40:13.210Z,83.40
2022-08-09T20:41:58.160Z,83.50
2022-08-09T20:44:33.249Z,84.00
2022-08-09T20:47:06.969Z,84.30
2022-08-09T20:49:57.276Z,84.20
2022-08-09T20:52:27.735Z,85.00
2022-08-09T20:55:01.009Z,84.80
2022-08-09T20:57:33.378Z,85.10
2022-08-09T21:00:31.555Z,85.20
2022-08-09T21:03:02.826Z,85.60
2022-08-09T21:05:50.799Z,85.80
2022-08-09T21:08:36.674Z,86.30
2022-08-09T21:14:00.569Z,86.50
2022-08-09T21:16:31.285Z,86.90
2022-08-09T21:20:19.174Z,87.20
2022-08-09T21:21:56.521Z,87.20
2022-08-09T21:24:28.773Z,87.90
2022-08-09T21:27:50.466Z,88.00
2022-08-09T21:29:56.013Z,88.40
2022-08-09T21:32:33.676Z,88.70
2022-08-09T21:35:05.982Z,89.20
2022-08-09T21:37:40.498Z,89.70
2022-08-09T21:40:30.110Z,89.90
2022-08-09T21:43:05.974Z,90.10
2022-08-09T21:45:39.124Z,90.20
2022-08-09T21:48:10.669Z,90.50
2022-08-09T21:50:46.738Z,90.50
2022-08-09T21:53:40.328Z,90.70
2022-08-09T21:56:15.113Z,90.90
2022-08-09T21:59:04.732Z,91.10
2022-08-09T22:01:59.078Z,91.20
2022-08-09T22:04:55.644Z,91.60
2022-08-09T22:07:35.464Z,91.70
2022-08-09T22:10:07.986Z,91.70
2022-08-09T22:12:39.911Z,92.00
2022-08-09T22:15:23.522Z,92.20
2022-08-09T22:18:12.105Z,92.40
2022-08-09T22:20:43.462Z,92.40
2022-08-09T22:23:16.532Z,92.60
2022-08-09T22:26:06.308Z,92.70
2022-08-09T22:28:37.428Z,92.80
2022-08-09T22:31:20.440Z,93.10
2022-08-09T22:33:55.626Z,93.30
2022-08-09T22:36:26.211Z,93.60
2022-08-09T22:38:56.675Z,93.50
2022-08-09T22:41:31.171Z,93.60
2022-08-09T22:44:04.290Z,93.80
2022-08-09T22:48:15.662Z,94.10
2022-08-09T22:49:29.248Z,94.20
2022-08-09T22:52:07.921Z,94.80
2022-08-09T22:54:38.470Z,95.20
2022-08-09T22:57:09.860Z,95.20
2022-08-09T22:59:55.260Z,95.50
2022-08-09T23:02:31.485Z,95.70
2022-08-09T23:05:01.798Z,95.80
2022-08-09T23:08:22.051Z,96.00
2022-08-09T23:10:43.533Z,96.40
2022-08-09T23:13:14.356Z,97.00
2022-08-09T23:16:02.884Z,96.90
2022-08-09T23:18:36.760Z,97.20
2022-08-09T23:21:07.814Z,97.30
2022-08-09T23:23:39.138Z,97.40
2022-08-09T23:26:10.117Z,97.80
2022-08-09T23:28:40.423Z,98.10
2022-08-09T23:31:10.947Z,98.60
2022-08-09T23:33:43.988Z,98.90
2022-08-09T23:36:14.459Z,99.30
2022-08-09T23:38:48.565Z,99.50
2022-08-09T23:41:28.271Z,99.40
2022-08-09T23:44:00.730Z,99.60
2022-08-09T23:46:31.618Z,99.60
2022-08-09T23:49:04.806Z,99.90
2022-08-09T23:51:35.519Z,99.90
2022-08-09T23:54:06.143Z,99.90
2022-08-09T23:56:53.400Z,99.90
2022-08-09T23:59:47.199Z,99.90
